createdAt,value
2019-02-24T00:02:12.650Z,14.60
2019-02-24T00:07:16.339Z,15.00
2019-02-24T00:12:18.462Z,15.23
2019-02-24T00:17:23.190Z,15.30
2019-02-24T00:22:31.583Z,16.03
2019-02-24T00:27:33.618Z,15.67
2019-02-24T00:32:35.692Z,14.90
2019-02-24T00:37:40.415Z,15.90
2019-02-24T00:42:44.850Z,15.07
2019-02-24T00:47:49.668Z,15.53
2019-02-24T00:52:51.919Z,15.53
2019-02-24T00:57:56.982Z,16.20
2019-02-24T01:02:59.178Z,15.47
2019-02-24T01:08:03.051Z,15.77
2019-02-24T01:13:05.305Z,15.00
2019-02-24T01:18:09.192Z,15.30
2019-02-24T01:23:17.882Z,16.03
2019-02-24T01:28:25.365Z,16.70
2019-02-24T01:33:28.428Z,16.30
2019-02-24T01:38:38.186Z,15.23
2019-02-24T01:43:42.659Z,16.40
2019-02-24T01:48:44.652Z,16.33
2019-02-24T01:53:46.878Z,17.40
2019-02-24T01:58:48.936Z,17.70
2019-02-24T02:03:56.402Z,16.10
2019-02-24T02:08:58.470Z,16.30
2019-02-24T02:14:00.494Z,17.57
2019-02-24T02:19:02.598Z,16.97
2019-02-24T02:24:04.680Z,17.60
2019-02-24T02:29:12.799Z,19.03
2019-02-24T02:34:17.147Z,18.20
2019-02-24T02:39:20.834Z,17.83
2019-02-24T02:44:23.919Z,19.03
2019-02-24T02:49:25.918Z,18.63
2019-02-24T02:54:28.170Z,18.63
2019-02-24T02:59:31.306Z,17.40
2019-02-24T03:04:33.790Z,19.00
2019-02-24T03:09:38.395Z,19.10
2019-02-24T03:14:43.436Z,17.80
2019-02-24T03:19:47.786Z,18.33
2019-02-24T03:24:49.887Z,18.27
2019-02-24T03:29:51.976Z,18.17
2019-02-24T03:34:54.199Z,18.30
2019-02-24T03:39:56.266Z,17.37
2019-02-24T03:44:58.293Z,18.63
2019-02-24T03:50:00.375Z,18.30
2019-02-24T03:55:02.846Z,18.27
2019-02-24T04:00:05.134Z,18.40
2019-02-24T04:05:07.136Z,17.90
2019-02-24T04:10:09.159Z,18.10
2019-02-24T04:15:11.519Z,19.27
2019-02-24T04:20:19.899Z,18.60
2019-02-24T04:25:32.422Z,17.90
2019-02-24T04:30:34.666Z,17.73
2019-02-24T04:35:37.997Z,18.53
2019-02-24T04:40:43.229Z,19.60
2019-02-24T04:45:48.036Z,19.23
2019-02-24T04:50:50.036Z,18.30
2019-02-24T04:55:54.905Z,18.80
2019-02-24T05:00:59.201Z,16.90
2019-02-24T05:06:05.252Z,17.23
2019-02-24T05:11:07.283Z,16.57
2019-02-24T05:16:09.362Z,18.30
2019-02-24T05:21:15.341Z,18.63
2019-02-24T05:26:17.396Z,18.83
2019-02-24T05:31:20.624Z,18.93
2019-02-24T05:36:27.933Z,18.07
2019-02-24T05:41:30.104Z,19.07
2019-02-24T05:46:32.686Z,19.43
2019-02-24T05:51:37.499Z,17.80
2019-02-24T05:56:45.319Z,17.50
2019-02-24T06:01:47.932Z,17.80
2019-02-24T06:06:51.086Z,17.70
2019-02-24T06:11:59.129Z,18.33
2019-02-24T06:17:09.804Z,18.77
2019-02-24T06:22:12.839Z,18.40
2019-02-24T06:27:17.362Z,19.03
2019-02-24T06:32:23.276Z,18.03
2019-02-24T06:37:26.486Z,20.03
2019-02-24T06:42:28.526Z,18.73
2019-02-24T06:47:33.754Z,19.70
2019-02-24T06:52:37.901Z,19.40
2019-02-24T06:57:43.378Z,19.73
2019-02-24T07:02:47.802Z,18.53
2019-02-24T07:07:50.197Z,19.50
2019-02-24T07:12:54.546Z,19.93
2019-02-24T07:17:59.391Z,20.80
2019-02-24T07:23:05.414Z,18.13
2019-02-24T07:28:07.452Z,19.40
2019-02-24T07:33:09.535Z,18.63
2019-02-24T07:38:20.668Z,18.83
2019-02-24T07:43:22.786Z,19.47
2019-02-24T07:48:27.527Z,20.17
2019-02-24T07:53:29.775Z,17.03
2019-02-24T07:58:31.943Z,16.43
2019-02-24T08:03:34.014Z,16.60
2019-02-24T08:08:38.779Z,16.07
2019-02-24T08:13:46.230Z,16.23
2019-02-24T08:18:55.361Z,17.67
2019-02-24T08:23:59.560Z,16.40
2019-02-24T08:29:01.583Z,16.50
2019-02-24T08:34:10.543Z,16.00
2019-02-24T08:39:13.893Z,16.27
2019-02-24T08:44:18.458Z,16.07
2019-02-24T08:49:21.273Z,15.87
2019-02-24T08:54:25.627Z,16.07
2019-02-24T08:59:27.661Z,15.23
2019-02-24T09:04:29.691Z,14.67
2019-02-24T09:09:31.870Z,15.50
2019-02-24T09:14:40.205Z,14.73
2019-02-24T09:19:44.625Z,15.33
2019-02-24T09:24:46.939Z,15.53
2019-02-24T09:29:49.122Z,15.03
2019-02-24T09:34:51.574Z,14.90
2019-02-24T09:39:55.922Z,15.23
2019-02-24T09:44:58.245Z,14.70
2019-02-24T09:50:00.353Z,14.63
2019-02-24T09:55:04.030Z,13.50
2019-02-24T10:00:10.892Z,14.43
2019-02-24T10:05:12.929Z,13.07
2019-02-24T10:10:17.191Z,14.30
2019-02-24T10:15:19.226Z,13.40
2019-02-24T10:20:21.233Z,14.30
2019-02-24T10:25:23.248Z,13.87
2019-02-24T10:30:26.491Z,13.70
2019-02-24T10:35:31.839Z,13.77
2019-02-24T10:40:34.131Z,13.90
2019-02-24T10:45:41.082Z,14.03
2019-02-24T10:50:43.566Z,14.07
2019-02-24T10:55:50.121Z,14.37
2019-02-24T11:00:52.187Z,13.80
2019-02-24T11:05:54.240Z,13.30
2019-02-24T11:10:56.470Z,13.90
2019-02-24T11:15:58.479Z,13.77
2019-02-24T11:21:02.995Z,13.47
2019-02-24T11:26:05.063Z,13.07
2019-02-24T11:31:07.206Z,13.60
2019-02-24T11:36:09.224Z,13.70
2019-02-24T11:41:11.352Z,13.93
2019-02-24T11:46:15.326Z,13.73
2019-02-24T11:51:17.379Z,14.10
2019-02-24T11:56:19.767Z,14.13
2019-02-24T12:01:22.069Z,14.50
2019-02-24T12:06:27.127Z,13.60
2019-02-24T12:11:29.463Z,14.33
2019-02-24T12:16:31.581Z,14.67
2019-02-24T12:21:33.608Z,13.40
2019-02-24T12:26:38.655Z,14.57
2019-02-24T12:31:40.742Z,14.13
2019-02-24T12:36:43.271Z,13.37
2019-02-24T12:41:45.319Z,13.80
2019-02-24T12:46:49.902Z,13.47
2019-02-24T12:51:54.254Z,13.53
2019-02-24T12:56:56.482Z,14.57
2019-02-24T13:02:05.518Z,13.30
2019-02-24T13:07:04.590Z,13.70
2019-02-24T13:12:06.668Z,13.63
2019-02-24T13:29:12.375Z,13.70
2019-02-24T13:34:14.598Z,13.57
2019-02-24T13:39:16.744Z,13.23
2019-02-24T13:44:18.812Z,12.47
2019-02-24T13:49:20.824Z,12.90
2019-02-24T13:54:23.114Z,12.63
2019-02-24T13:59:25.279Z,12.97
2019-02-24T14:04:27.325Z,12.67
2019-02-24T14:09:29.428Z,13.17
2019-02-24T14:14:31.558Z,12.80
2019-02-24T14:19:33.534Z,12.33
2019-02-24T14:24:37.432Z,13.00
2019-02-24T14:29:39.538Z,12.23
2019-02-24T14:34:41.576Z,12.33
2019-02-24T14:39:43.937Z,11.97
2019-02-24T14:44:45.963Z,13.27
2019-02-24T14:49:48.140Z,14.00
2019-02-24T14:54:56.129Z,12.60
2019-02-24T14:59:58.279Z,12.17
2019-02-24T15:05:00.558Z,11.97
2019-02-24T15:10:03.737Z,12.63
2019-02-24T15:15:07.385Z,12.00
2019-02-24T15:20:14.008Z,12.97
2019-02-24T15:25:16.541Z,11.67
2019-02-24T15:30:24.459Z,11.23
2019-02-24T15:35:27.106Z,10.70
2019-02-24T15:40:31.780Z,10.93
2019-02-24T15:45:36.447Z,11.07
2019-02-24T15:50:38.582Z,11.57
2019-02-24T15:55:40.695Z,11.97
2019-02-24T16:00:42.719Z,11.57
2019-02-24T16:05:44.950Z,10.73
2019-02-24T16:10:47.025Z,10.97
2019-02-24T16:15:49.198Z,10.53
2019-02-24T16:20:51.451Z,11.50
2019-02-24T16:25:53.744Z,10.83
2019-02-24T16:30:55.752Z,11.13
2019-02-24T16:35:59.708Z,10.13
2019-02-24T16:41:01.739Z,11.10
2019-02-24T16:46:03.820Z,11.20
2019-02-24T16:51:05.964Z,11.10
2019-02-24T16:56:08.132Z,11.20
2019-02-24T17:01:10.710Z,10.63
2019-02-24T17:06:12.868Z,11.13
2019-02-24T17:11:14.903Z,11.77
2019-02-24T17:16:17.282Z,11.27
2019-02-24T17:21:22.375Z,11.77
2019-02-24T17:26:24.570Z,11.77
2019-02-24T17:31:29.414Z,11.73
2019-02-24T17:36:31.718Z,11.87
2019-02-24T17:41:33.740Z,12.80
2019-02-24T17:46:37.095Z,11.23
2019-02-24T17:51:40.906Z,12.77
2019-02-24T17:56:43.947Z,12.90
2019-02-24T18:01:45.954Z,13.73
2019-02-24T18:06:48.129Z,13.63
2019-02-24T18:11:50.125Z,14.63
2019-02-24T18:16:53.783Z,14.57
2019-02-24T18:21:57.189Z,13.93
2019-02-24T18:26:59.262Z,14.73
2019-02-24T18:32:04.047Z,14.70
2019-02-24T18:37:06.067Z,16.63
2019-02-24T18:42:08.093Z,15.47
2019-02-24T18:47:10.109Z,14.67
2019-02-24T18:52:16.137Z,14.40
2019-02-24T18:57:18.369Z,13.27
2019-02-24T19:02:23.432Z,14.60
2019-02-24T19:07:25.699Z,13.10
2019-02-24T19:12:27.757Z,13.10
2019-02-24T19:17:30.967Z,13.20
2019-02-24T19:22:32.972Z,13.13
2019-02-24T19:27:37.014Z,12.90
2019-02-24T19:32:40.260Z,12.83
2019-02-24T19:37:44.061Z,13.23
2019-02-24T19:42:46.067Z,14.00
2019-02-24T19:47:49.515Z,13.60
2019-02-24T19:52:51.645Z,13.70
2019-02-24T19:57:56.901Z,13.47
2019-02-24T20:03:01.115Z,14.70
2019-02-24T20:08:03.397Z,14.23
2019-02-24T20:13:05.378Z,14.47
2019-02-24T20:18:10.084Z,13.83
2019-02-24T20:23:12.111Z,14.87
2019-02-24T20:28:14.114Z,16.20
2019-02-24T20:33:16.195Z,15.07
2019-02-24T20:38:18.552Z,17.00
2019-02-24T20:43:20.645Z,17.27
2019-02-24T20:48:23.293Z,18.00
2019-02-24T20:53:25.364Z,18.73
2019-02-24T20:58:29.495Z,18.83
2019-02-24T21:03:31.600Z,17.83
2019-02-24T21:08:33.882Z,17.67
2019-02-24T21:13:35.867Z,17.47
2019-02-24T21:18:43.930Z,17.80
2019-02-24T21:23:46.051Z,20.70
2019-02-24T21:28:49.723Z,18.17
2019-02-24T21:33:51.754Z,17.53
2019-02-24T21:38:54.060Z,18.47
2019-02-24T21:43:58.858Z,17.30
2019-02-24T21:49:01.634Z,16.47
2019-02-24T21:54:03.647Z,18.10
2019-02-24T21:59:06.535Z,18.73
2019-02-24T22:04:08.654Z,19.20
2019-02-24T22:09:11.510Z,18.07
2019-02-24T22:14:15.747Z,19.20
2019-02-24T22:19:19.222Z,18.40
2019-02-24T22:24:21.301Z,19.37
2019-02-24T22:29:23.347Z,18.77
2019-02-24T22:34:25.366Z,20.10
2019-02-24T22:39:27.604Z,17.97
2019-02-24T22:44:32.200Z,20.33
2019-02-24T22:49:34.436Z,20.53
2019-02-24T22:54:36.434Z,20.30
2019-02-24T22:59:38.580Z,19.27
2019-02-24T23:04:43.388Z,20.53
2019-02-24T23:09:47.444Z,20.23
2019-02-24T23:14:50.775Z,19.70
2019-02-24T23:19:52.981Z,20.23
2019-02-24T23:24:56.115Z,19.70
2019-02-24T23:29:59.567Z,19.90
2019-02-24T23:35:07.197Z,18.73
2019-02-24T23:40:09.155Z,21.00
2019-02-24T23:45:11.180Z,21.83
2019-02-24T23:50:15.051Z,20.67
2019-02-24T23:55:18.229Z,20.17
